createdAt,value
2019-02-19T00:01:00.580Z,5.73
2019-02-19T00:03:29.668Z,5.07
2019-02-19T00:05:58.770Z,5.40
2019-02-19T00:08:27.858Z,5.87
2019-02-19T00:10:56.947Z,5.37
2019-02-19T00:13:26.047Z,4.97
2019-02-19T00:15:55.114Z,5.33
2019-02-19T00:18:24.199Z,5.47
2019-02-19T00:20:53.294Z,5.33
2019-02-19T00:23:22.390Z,5.10
2019-02-19T00:25:52.327Z,5.40
2019-02-19T00:28:21.509Z,5.30
2019-02-19T00:30:50.586Z,5.03
2019-02-19T00:33:19.659Z,5.17
2019-02-19T00:35:48.771Z,4.90
2019-02-19T00:38:17.901Z,5.00
2019-02-19T00:40:46.983Z,5.33
2019-02-19T00:43:16.100Z,5.07
2019-02-19T00:45:45.207Z,4.83
2019-02-19T00:48:14.266Z,4.83
2019-02-19T00:50:43.371Z,5.13
2019-02-19T00:53:12.473Z,5.03
2019-02-19T00:55:41.567Z,5.00
2019-02-19T00:58:10.665Z,5.07
2019-02-19T01:00:39.740Z,5.30
2019-02-19T01:03:08.862Z,5.00
2019-02-19T01:05:37.932Z,5.73
2019-02-19T01:08:07.113Z,4.80
2019-02-19T01:10:36.182Z,5.40
2019-02-19T01:13:05.243Z,5.13
2019-02-19T01:15:34.335Z,5.13
2019-02-19T01:18:03.411Z,5.00
2019-02-19T01:20:32.511Z,4.63
2019-02-19T01:23:01.586Z,5.00
2019-02-19T01:25:30.669Z,5.10
2019-02-19T01:27:59.696Z,5.00
2019-02-19T01:30:28.799Z,5.13
2019-02-19T01:32:57.911Z,5.33
2019-02-19T01:35:27.060Z,4.83
2019-02-19T01:37:56.165Z,5.40
2019-02-19T01:40:26.969Z,5.10
2019-02-19T01:42:56.044Z,5.57
2019-02-19T01:45:25.115Z,4.97
2019-02-19T01:47:54.215Z,5.47
2019-02-19T01:50:23.309Z,4.90
2019-02-19T01:52:52.383Z,5.50
2019-02-19T01:55:21.409Z,5.67
2019-02-19T01:57:50.483Z,5.33
2019-02-19T02:00:19.557Z,5.93
2019-02-19T02:02:48.648Z,6.43
2019-02-19T02:05:17.755Z,6.13
2019-02-19T02:07:46.855Z,6.13
2019-02-19T02:10:15.970Z,5.47
2019-02-19T02:12:45.050Z,6.60
2019-02-19T02:15:14.152Z,6.00
2019-02-19T02:17:43.241Z,6.17
2019-02-19T02:20:12.296Z,6.20
2019-02-19T02:22:41.373Z,6.80
2019-02-19T02:25:10.519Z,6.00
2019-02-19T02:27:39.595Z,6.60
2019-02-19T02:30:08.774Z,6.50
2019-02-19T02:32:37.851Z,6.43
2019-02-19T02:35:06.923Z,6.40
2019-02-19T02:37:35.999Z,6.67
2019-02-19T02:40:05.559Z,5.50
2019-02-19T02:42:34.667Z,6.20
2019-02-19T02:45:04.023Z,6.20
2019-02-19T02:47:33.097Z,6.87
2019-02-19T02:50:02.173Z,7.17
2019-02-19T02:52:31.287Z,6.30
2019-02-19T02:55:00.357Z,5.93
2019-02-19T02:57:29.417Z,6.17
2019-02-19T02:59:58.491Z,6.17
2019-02-19T03:02:27.570Z,6.20
2019-02-19T03:04:56.666Z,6.07
2019-02-19T03:07:30.655Z,6.40
2019-02-19T03:09:59.752Z,5.87
2019-02-19T03:12:28.843Z,6.47
2019-02-19T03:14:57.898Z,5.80
2019-02-19T03:17:26.997Z,6.17
2019-02-19T03:19:56.070Z,6.53
2019-02-19T03:22:25.133Z,5.60
2019-02-19T03:24:54.221Z,5.73
2019-02-19T03:27:23.286Z,5.37
2019-02-19T03:29:52.341Z,5.80
2019-02-19T03:32:21.435Z,5.63
2019-02-19T03:34:50.482Z,5.87
2019-02-19T03:37:19.560Z,5.80
2019-02-19T03:39:48.641Z,6.67
2019-02-19T03:42:17.737Z,6.20
2019-02-19T03:44:46.868Z,5.90
2019-02-19T03:47:15.965Z,5.93
2019-02-19T03:49:45.045Z,6.03
2019-02-19T03:52:14.149Z,6.37
2019-02-19T03:54:43.416Z,5.83
2019-02-19T03:57:12.492Z,6.30
2019-02-19T03:59:41.564Z,7.03
2019-02-19T04:02:10.643Z,6.50
2019-02-19T04:04:39.724Z,6.10
2019-02-19T04:07:08.875Z,6.30
2019-02-19T04:09:37.939Z,6.37
2019-02-19T04:12:07.033Z,6.63
2019-02-19T04:14:36.115Z,6.03
2019-02-19T04:17:05.284Z,7.13
2019-02-19T04:19:34.368Z,6.23
2019-02-19T04:22:03.465Z,7.30
2019-02-19T04:24:32.547Z,6.57
2019-02-19T04:27:01.639Z,6.93
2019-02-19T04:29:30.709Z,6.73
2019-02-19T04:31:59.739Z,6.23
2019-02-19T04:34:28.815Z,6.50
2019-02-19T04:36:57.890Z,6.93
2019-02-19T04:39:26.975Z,6.90
2019-02-19T04:41:56.045Z,7.07
2019-02-19T04:44:25.151Z,6.60
2019-02-19T04:46:54.262Z,6.97
2019-02-19T04:49:23.369Z,7.10
2019-02-19T04:51:52.422Z,7.27
2019-02-19T04:54:21.517Z,7.07
2019-02-19T04:56:50.590Z,7.03
2019-02-19T04:59:19.704Z,7.20
2019-02-19T05:01:48.865Z,7.23
2019-02-19T05:04:17.978Z,7.50
2019-02-19T05:06:47.046Z,7.33
2019-02-19T05:09:16.063Z,8.20
2019-02-19T05:11:45.161Z,7.67
2019-02-19T05:14:14.251Z,8.17
2019-02-19T05:16:43.338Z,7.60
2019-02-19T05:19:12.430Z,7.67
2019-02-19T05:21:41.494Z,7.73
2019-02-19T05:24:10.594Z,7.90
2019-02-19T05:26:39.750Z,7.77
2019-02-19T05:29:08.822Z,7.73
2019-02-19T05:31:37.902Z,8.20
2019-02-19T05:34:06.998Z,7.97
2019-02-19T05:36:36.132Z,7.70
2019-02-19T05:39:06.255Z,7.57
2019-02-19T05:41:35.275Z,7.63
2019-02-19T05:44:04.355Z,7.60
2019-02-19T05:46:33.432Z,8.13
2019-02-19T05:49:02.521Z,7.40
2019-02-19T05:51:31.589Z,7.23
2019-02-19T05:54:00.678Z,7.80
2019-02-19T05:56:29.751Z,8.00
2019-02-19T05:58:58.852Z,8.23
2019-02-19T06:01:28.010Z,8.50
2019-02-19T06:03:57.088Z,8.93
2019-02-19T06:06:26.162Z,9.17
2019-02-19T06:08:55.257Z,8.60
2019-02-19T06:11:24.354Z,7.97
2019-02-19T06:13:53.488Z,7.80
2019-02-19T06:16:22.562Z,8.40
2019-02-19T06:18:51.567Z,7.77
2019-02-19T06:21:20.602Z,7.97
2019-02-19T06:23:49.682Z,7.87
2019-02-19T06:26:18.779Z,7.97
2019-02-19T06:28:47.862Z,8.47
2019-02-19T06:31:16.934Z,8.00
2019-02-19T06:33:45.938Z,8.80
2019-02-19T06:36:15.027Z,8.67
2019-02-19T06:38:44.108Z,8.20
2019-02-19T06:41:13.190Z,8.37
2019-02-19T06:43:42.278Z,8.43
2019-02-19T06:46:11.432Z,9.13
2019-02-19T06:48:40.526Z,8.73
2019-02-19T06:51:09.598Z,8.83
2019-02-19T06:53:38.706Z,8.73
2019-02-19T06:56:07.807Z,9.13
2019-02-19T06:58:36.892Z,9.23
2019-02-19T07:01:06.047Z,9.43
2019-02-19T07:03:57.071Z,9.23
2019-02-19T07:06:26.248Z,9.27
2019-02-19T07:08:55.346Z,9.03
2019-02-19T07:11:24.434Z,9.23
2019-02-19T07:13:53.549Z,9.57
2019-02-19T07:16:22.628Z,8.80
2019-02-19T07:18:51.733Z,9.23
2019-02-19T07:21:20.829Z,9.03
2019-02-19T07:23:49.912Z,9.90
2019-02-19T07:26:19.024Z,9.70
2019-02-19T07:28:48.151Z,9.03
2019-02-19T07:31:17.314Z,8.93
2019-02-19T07:33:46.415Z,8.93
2019-02-19T07:36:15.507Z,8.70
2019-02-19T07:38:44.591Z,8.40
2019-02-19T07:41:13.678Z,8.73
2019-02-19T07:43:42.768Z,9.73
2019-02-19T07:46:11.887Z,8.50
2019-02-19T07:48:40.975Z,8.70
2019-02-19T07:51:10.049Z,8.97
2019-02-19T07:53:39.163Z,8.13
2019-02-19T07:56:08.314Z,8.70
2019-02-19T07:58:37.394Z,9.20
2019-02-19T08:01:06.471Z,8.47
2019-02-19T08:03:35.553Z,8.67
2019-02-19T08:06:04.672Z,8.97
2019-02-19T08:08:33.755Z,8.77
2019-02-19T08:11:02.862Z,10.10
2019-02-19T08:13:31.971Z,8.93
2019-02-19T08:16:01.227Z,9.40
2019-02-19T08:18:30.399Z,8.50
2019-02-19T08:20:59.535Z,8.53
2019-02-19T08:23:29.959Z,9.13
2019-02-19T08:25:59.209Z,9.50
2019-02-19T08:28:28.312Z,9.03
2019-02-19T08:30:57.405Z,9.80
2019-02-19T08:33:26.489Z,8.70
2019-02-19T08:35:55.570Z,9.33
2019-02-19T08:38:24.589Z,8.93
2019-02-19T08:40:53.709Z,9.00
2019-02-19T08:43:22.819Z,9.50
2019-02-19T08:45:51.889Z,9.10
2019-02-19T08:48:20.991Z,9.70
2019-02-19T08:50:49.991Z,9.23
2019-02-19T08:53:19.084Z,8.60
2019-02-19T08:55:48.165Z,10.03
2019-02-19T08:58:17.171Z,9.07
2019-02-19T09:00:46.226Z,9.40
2019-02-19T09:03:16.808Z,9.03
2019-02-19T09:05:46.175Z,9.53
2019-02-19T09:08:15.191Z,12.33
2019-02-19T09:10:44.305Z,11.77
2019-02-19T09:13:13.384Z,12.93
2019-02-19T09:15:42.483Z,9.20
2019-02-19T09:18:11.560Z,9.53
2019-02-19T09:20:40.723Z,9.50
2019-02-19T09:23:09.903Z,10.50
2019-02-19T09:25:38.985Z,9.77
2019-02-19T09:28:08.073Z,10.20
2019-02-19T09:30:37.164Z,10.13
2019-02-19T09:33:06.242Z,11.07
2019-02-19T09:35:35.322Z,11.03
2019-02-19T09:38:04.414Z,11.50
2019-02-19T09:40:33.642Z,11.50
2019-02-19T09:43:02.765Z,10.87
2019-02-19T09:45:31.900Z,11.33
2019-02-19T09:48:01.661Z,10.30
2019-02-19T09:50:30.949Z,10.83
2019-02-19T09:53:00.476Z,10.23
2019-02-19T09:55:29.730Z,9.90
2019-02-19T09:57:58.837Z,10.83
2019-02-19T10:00:27.926Z,9.63
2019-02-19T10:02:57.003Z,9.73
2019-02-19T10:05:26.093Z,10.93
2019-02-19T10:07:55.924Z,10.80
2019-02-19T10:10:25.174Z,11.33
2019-02-19T10:12:54.271Z,11.63
2019-02-19T10:15:23.349Z,11.50
2019-02-19T10:17:52.512Z,11.40
2019-02-19T10:20:21.611Z,11.23
2019-02-19T10:22:50.709Z,11.60
2019-02-19T10:25:19.804Z,11.83
2019-02-19T10:27:48.881Z,11.03
2019-02-19T10:30:17.966Z,11.80
2019-02-19T10:32:47.043Z,10.57
2019-02-19T10:35:16.211Z,11.33
2019-02-19T10:37:45.283Z,10.83
2019-02-19T10:40:15.111Z,10.10
2019-02-19T10:42:44.193Z,9.60
2019-02-19T10:45:15.587Z,10.60
2019-02-19T10:47:44.680Z,9.53
2019-02-19T10:50:13.786Z,10.93
2019-02-19T10:52:42.944Z,9.50
2019-02-19T10:55:12.033Z,8.63
2019-02-19T10:57:41.142Z,8.90
2019-02-19T11:00:16.768Z,11.43
2019-02-19T11:02:45.939Z,8.93
2019-02-19T11:05:15.045Z,13.00
2019-02-19T11:07:44.035Z,8.47
2019-02-19T11:10:13.541Z,8.20
2019-02-19T11:12:42.894Z,8.83
2019-02-19T11:15:12.062Z,8.37
2019-02-19T11:17:41.157Z,8.20
2019-02-19T11:20:11.654Z,8.80
2019-02-19T11:22:40.726Z,8.43
2019-02-19T11:25:11.321Z,7.07
2019-02-19T11:27:40.449Z,7.77
2019-02-19T11:30:12.138Z,6.83
2019-02-19T11:32:41.231Z,8.57
2019-02-19T11:35:10.355Z,6.43
2019-02-19T11:37:39.504Z,7.50
2019-02-19T11:40:09.868Z,5.87
2019-02-19T11:42:39.029Z,6.70
2019-02-19T11:45:10.291Z,4.77
2019-02-19T11:47:39.391Z,6.27
2019-02-19T11:50:08.596Z,4.67
2019-02-19T11:52:37.697Z,4.20
2019-02-19T11:55:07.626Z,4.70
2019-02-19T11:57:36.694Z,5.67
2019-02-19T12:00:07.738Z,6.27
2019-02-19T12:02:36.842Z,5.70
2019-02-19T12:05:07.041Z,5.10
2019-02-19T12:07:36.230Z,6.03
2019-02-19T12:10:05.905Z,5.97
2019-02-19T12:12:34.991Z,4.70
2019-02-19T12:15:04.418Z,4.50
2019-02-19T12:17:33.513Z,4.30
2019-02-19T12:20:02.678Z,4.10
2019-02-19T12:22:31.780Z,5.20
2019-02-19T12:25:00.865Z,5.17
2019-02-19T12:27:29.942Z,5.63
2019-02-19T12:29:59.057Z,5.27
2019-02-19T12:32:28.152Z,5.00
2019-02-19T12:34:57.252Z,4.57
2019-02-19T12:37:26.290Z,4.30
2019-02-19T12:39:55.319Z,4.17
2019-02-19T12:42:24.474Z,4.77
2019-02-19T12:44:53.680Z,5.73
2019-02-19T12:47:22.786Z,5.07
2019-02-19T12:49:51.864Z,5.20
2019-02-19T12:52:20.970Z,5.43
2019-02-19T12:54:50.098Z,5.03
2019-02-19T12:57:19.183Z,5.07
2019-02-19T12:59:56.251Z,5.93
2019-02-19T13:02:19.714Z,5.27
2019-02-19T13:04:49.034Z,5.47
2019-02-19T13:07:18.186Z,6.10
2019-02-19T13:09:47.292Z,5.73
2019-02-19T13:12:16.334Z,5.83
2019-02-19T13:14:45.453Z,6.03
2019-02-19T13:17:14.542Z,5.90
2019-02-19T13:19:43.658Z,5.70
2019-02-19T13:22:12.753Z,5.93
2019-02-19T13:24:43.059Z,5.67
2019-02-19T13:27:12.323Z,5.10
2019-02-19T13:29:41.380Z,4.50
2019-02-19T13:32:10.517Z,5.13
2019-02-19T13:34:39.623Z,5.50
2019-02-19T13:37:09.049Z,5.70
2019-02-19T13:39:38.212Z,5.43
2019-02-19T13:42:07.334Z,4.80
2019-02-19T13:44:36.446Z,3.50
2019-02-19T13:47:05.543Z,3.13
2019-02-19T13:49:34.736Z,3.10
2019-02-19T13:52:12.137Z,3.30
2019-02-19T13:54:47.157Z,4.27
2019-02-19T13:57:16.270Z,3.50
2019-02-19T13:59:45.392Z,3.87
2019-02-19T14:02:14.526Z,2.87
2019-02-19T14:04:43.680Z,2.90
2019-02-19T14:07:12.865Z,2.90
2019-02-19T14:09:42.048Z,2.77
2019-02-19T14:12:11.144Z,2.60
2019-02-19T14:14:47.823Z,3.10
2019-02-19T14:17:19.289Z,3.30
2019-02-19T14:19:53.106Z,3.03
2019-02-19T14:22:41.235Z,2.97
2019-02-19T14:25:29.429Z,2.90
2019-02-19T14:28:16.450Z,2.80
2019-02-19T14:31:03.491Z,2.90
2019-02-19T14:34:01.005Z,3.00
2019-02-19T14:36:47.835Z,2.60
2019-02-19T14:39:34.741Z,2.63
2019-02-19T14:42:35.316Z,2.50
2019-02-19T14:45:10.939Z,2.70
2019-02-19T14:47:59.089Z,2.50
2019-02-19T14:50:50.291Z,2.57
2019-02-19T14:53:35.328Z,2.30
2019-02-19T14:56:22.373Z,2.20
2019-02-19T14:59:09.128Z,2.20
2019-02-19T15:02:03.585Z,2.63
2019-02-19T15:04:54.639Z,2.40
2019-02-19T15:07:41.627Z,2.37
2019-02-19T15:10:37.150Z,2.43
2019-02-19T15:13:34.282Z,3.00
2019-02-19T15:16:28.290Z,2.87
2019-02-19T15:19:22.975Z,3.07
2019-02-19T15:22:23.216Z,2.97
2019-02-19T15:25:14.165Z,2.80
2019-02-19T15:28:08.251Z,2.90
2019-02-19T15:30:55.037Z,2.97
2019-02-19T15:33:41.611Z,2.50
2019-02-19T15:36:29.776Z,3.10
2019-02-19T15:39:06.705Z,2.83
2019-02-19T15:41:57.875Z,2.80
2019-02-19T15:44:35.835Z,3.00
2019-02-19T15:47:36.327Z,3.47
2019-02-19T15:50:33.822Z,2.97
2019-02-19T15:53:37.141Z,2.93
2019-02-19T15:56:28.086Z,3.23
2019-02-19T15:59:16.328Z,2.90
2019-02-19T16:01:52.477Z,2.50
2019-02-19T16:04:46.932Z,2.53
2019-02-19T16:07:25.995Z,2.80
2019-02-19T16:10:00.411Z,2.70
2019-02-19T16:12:35.987Z,2.80
2019-02-19T16:15:36.890Z,2.80
2019-02-19T16:18:14.131Z,2.70
2019-02-19T16:21:08.335Z,3.10
2019-02-19T16:23:43.107Z,3.10
2019-02-19T16:26:22.703Z,3.13
2019-02-19T16:28:59.309Z,3.20
2019-02-19T16:31:46.473Z,2.90
2019-02-19T16:34:37.666Z,3.13
2019-02-19T16:37:22.599Z,3.30
2019-02-19T16:40:05.602Z,4.20
2019-02-19T16:43:02.858Z,4.17
2019-02-19T16:46:00.192Z,4.37
2019-02-19T16:48:44.246Z,4.10
2019-02-19T16:51:23.033Z,4.37
2019-02-19T16:54:26.323Z,5.67
2019-02-19T16:57:13.195Z,6.47
2019-02-19T16:59:57.101Z,5.17
2019-02-19T17:02:35.905Z,3.47
2019-02-19T17:05:32.130Z,3.43
2019-02-19T17:08:22.810Z,3.03
2019-02-19T17:10:59.204Z,3.40
2019-02-19T17:13:37.939Z,3.20
2019-02-19T17:16:17.547Z,3.00
2019-02-19T17:19:00.795Z,3.00
2019-02-19T17:21:42.200Z,2.90
2019-02-19T17:24:42.370Z,2.80
2019-02-19T17:27:29.216Z,2.90
2019-02-19T17:30:16.258Z,3.33
2019-02-19T17:32:59.872Z,2.87
2019-02-19T17:35:53.911Z,2.70
2019-02-19T17:38:27.977Z,3.30
2019-02-19T17:41:05.970Z,3.73
2019-02-19T17:43:49.651Z,4.13
2019-02-19T17:46:37.792Z,4.13
2019-02-19T17:49:17.989Z,4.17
2019-02-19T17:52:03.624Z,6.03
2019-02-19T17:54:41.230Z,5.47
2019-02-19T17:57:28.182Z,4.77
2019-02-19T18:00:16.446Z,5.57
2019-02-19T18:03:13.885Z,6.07
2019-02-19T18:05:56.929Z,5.60
2019-02-19T18:08:37.774Z,5.33
2019-02-19T18:11:25.700Z,5.87
2019-02-19T18:14:05.898Z,7.27
2019-02-19T18:16:56.015Z,6.63
2019-02-19T18:19:25.140Z,5.93
2019-02-19T18:21:54.260Z,5.63
2019-02-19T18:24:23.457Z,6.20
2019-02-19T18:26:52.703Z,7.00
2019-02-19T18:29:21.883Z,7.03
2019-02-19T18:31:51.031Z,6.97
2019-02-19T18:34:20.217Z,6.77
2019-02-19T18:36:49.431Z,7.47
2019-02-19T18:39:18.570Z,9.07
2019-02-19T18:41:47.685Z,11.43
2019-02-19T18:44:16.814Z,11.43
2019-02-19T18:46:46.016Z,10.53
2019-02-19T18:49:15.362Z,10.10
2019-02-19T18:51:46.104Z,8.43
2019-02-19T18:54:15.242Z,7.83
2019-02-19T18:56:44.443Z,7.73
2019-02-19T18:59:13.622Z,7.80
2019-02-19T19:01:42.811Z,7.30
2019-02-19T19:04:11.927Z,6.83
2019-02-19T19:06:41.018Z,7.70
2019-02-19T19:09:10.126Z,9.50
2019-02-19T19:11:39.510Z,10.17
2019-02-19T19:14:08.660Z,11.10
2019-02-19T19:16:37.812Z,11.23
2019-02-19T19:19:06.961Z,11.83
2019-02-19T19:21:36.159Z,12.20
2019-02-19T19:24:05.307Z,11.73
2019-02-19T19:26:34.502Z,12.57
2019-02-19T19:29:03.655Z,13.90
2019-02-19T19:31:33.916Z,12.97
2019-02-19T19:34:03.299Z,11.47
2019-02-19T19:36:33.841Z,13.27
2019-02-19T19:39:03.073Z,17.60
2019-02-19T19:41:32.208Z,15.70
2019-02-19T19:44:01.235Z,14.57
2019-02-19T19:46:30.382Z,11.37
2019-02-19T19:48:59.573Z,11.13
2019-02-19T19:51:28.687Z,11.30
2019-02-19T19:53:57.801Z,11.00
2019-02-19T19:56:26.921Z,10.87
2019-02-19T19:58:56.054Z,11.43
2019-02-19T20:01:25.289Z,12.97
2019-02-19T20:03:54.410Z,12.37
2019-02-19T20:06:23.526Z,12.57
2019-02-19T20:08:52.689Z,12.37
2019-02-19T20:11:21.845Z,11.00
2019-02-19T20:13:51.085Z,9.73
2019-02-19T20:16:20.276Z,10.17
2019-02-19T20:18:49.573Z,13.13
2019-02-19T20:21:26.515Z,13.83
2019-02-19T20:23:50.139Z,11.27
2019-02-19T20:26:19.407Z,11.90
2019-02-19T20:28:48.537Z,11.07
2019-02-19T20:31:17.714Z,12.80
2019-02-19T20:33:46.769Z,13.53
2019-02-19T20:36:15.995Z,12.50
2019-02-19T20:38:45.185Z,13.60
2019-02-19T20:41:14.476Z,14.57
2019-02-19T20:43:43.565Z,14.77
2019-02-19T20:46:12.674Z,14.87
2019-02-19T20:48:41.775Z,12.73
2019-02-19T20:51:10.869Z,12.63
2019-02-19T20:53:40.058Z,11.90
2019-02-19T20:56:09.213Z,12.53
2019-02-19T20:58:38.293Z,13.50
2019-02-19T21:01:07.725Z,13.97
2019-02-19T21:03:36.852Z,12.80
2019-02-19T21:06:06.019Z,14.57
2019-02-19T21:08:35.128Z,14.50
2019-02-19T21:11:04.214Z,12.80
2019-02-19T21:13:33.293Z,11.60
2019-02-19T21:16:02.723Z,10.60
2019-02-19T21:18:31.818Z,10.70
2019-02-19T21:21:00.947Z,12.07
2019-02-19T21:23:30.156Z,10.90
2019-02-19T21:25:59.276Z,13.10
2019-02-19T21:28:28.837Z,14.30
2019-02-19T21:30:57.941Z,13.47
2019-02-19T21:33:27.080Z,14.40
2019-02-19T21:35:57.856Z,13.80
2019-02-19T21:38:27.003Z,12.90
2019-02-19T21:40:56.166Z,14.43
2019-02-19T21:43:25.281Z,13.80
2019-02-19T21:45:54.387Z,15.33
2019-02-19T21:48:23.540Z,18.37
2019-02-19T21:50:52.660Z,16.63
2019-02-19T21:53:22.102Z,19.00
2019-02-19T21:55:51.225Z,17.40
2019-02-19T21:58:20.368Z,16.77
2019-02-19T22:00:49.482Z,16.27
2019-02-19T22:03:18.587Z,15.97
2019-02-19T22:05:47.731Z,12.50
2019-02-19T22:08:16.863Z,11.60
2019-02-19T22:10:45.983Z,11.13
2019-02-19T22:13:15.235Z,11.60
2019-02-19T22:15:44.348Z,10.97
2019-02-19T22:18:13.461Z,14.00
2019-02-19T22:20:53.815Z,13.33
2019-02-19T22:23:22.920Z,13.70
2019-02-19T22:25:52.135Z,13.77
2019-02-19T22:28:22.958Z,12.63
2019-02-19T22:30:52.317Z,11.60
2019-02-19T22:33:21.392Z,12.30
2019-02-19T22:35:50.561Z,11.70
2019-02-19T22:38:19.645Z,11.50
2019-02-19T22:40:54.968Z,22.87
2019-02-19T22:43:19.612Z,31.07
2019-02-19T22:45:48.796Z,21.27
2019-02-19T22:48:17.912Z,14.30
2019-02-19T22:50:47.095Z,14.47
2019-02-19T22:53:34.301Z,13.93
2019-02-19T22:56:13.167Z,14.87
2019-02-19T22:58:42.307Z,16.33
2019-02-19T23:01:32.852Z,16.90
2019-02-19T23:04:02.572Z,17.07
2019-02-19T23:06:31.710Z,16.20
2019-02-19T23:09:00.820Z,18.57
2019-02-19T23:11:29.922Z,17.93
2019-02-19T23:13:59.023Z,18.30
2019-02-19T23:16:28.143Z,19.00
2019-02-19T23:18:57.215Z,18.90
2019-02-19T23:21:26.334Z,19.27
2019-02-19T23:23:55.485Z,17.83
2019-02-19T23:26:24.623Z,18.27
2019-02-19T23:28:53.696Z,19.17
2019-02-19T23:31:22.813Z,19.03
2019-02-19T23:33:51.915Z,18.07
2019-02-19T23:36:28.868Z,19.07
2019-02-19T23:38:57.955Z,18.93
2019-02-19T23:41:27.077Z,19.33
2019-02-19T23:43:56.197Z,19.23
2019-02-19T23:46:25.287Z,19.90
2019-02-19T23:48:54.387Z,18.87
2019-02-19T23:51:23.491Z,17.57
2019-02-19T23:53:52.669Z,17.60
2019-02-19T23:56:21.761Z,18.47
2019-02-19T23:58:50.843Z,18.33
